createdAt,value
2022-09-18T00:01:59.000Z,99381.97
2022-09-18T00:07:01.699Z,99386.22
2022-09-18T00:12:04.489Z,99371.78
2022-09-18T00:17:09.269Z,99380.66
2022-09-18T00:22:12.014Z,99383.13
2022-09-18T00:27:14.629Z,99384.50
2022-09-18T00:32:18.570Z,99382.72
2022-09-18T00:37:21.394Z,99388.09
2022-09-18T00:42:24.082Z,99390.38
2022-09-18T00:47:33.697Z,99394.66
2022-09-18T00:52:43.377Z,99392.53
2022-09-18T00:57:49.126Z,99383.53
2022-09-18T01:02:53.902Z,99396.81
2022-09-18T01:08:04.242Z,99394.50
2022-09-18T01:13:12.407Z,99412.06
2022-09-18T01:18:22.624Z,99410.09
2022-09-18T01:23:59.879Z,99417.13
2022-09-18T01:29:07.596Z,99423.50
2022-09-18T01:34:14.816Z,99431.03
2022-09-18T01:39:21.272Z,99426.59
2022-09-18T01:44:29.248Z,99436.63
2022-09-18T01:49:39.993Z,99438.22
2022-09-18T01:54:44.549Z,99440.38
2022-09-18T01:59:51.767Z,99443.78
2022-09-18T02:04:59.700Z,99447.59
2022-09-18T02:10:02.731Z,99459.06
2022-09-18T02:15:11.645Z,99460.53
2022-09-18T02:20:24.110Z,99479.88
2022-09-18T02:25:31.291Z,99478.06
2022-09-18T02:30:35.640Z,99463.47
2022-09-18T02:35:41.719Z,99470.19
2022-09-18T02:40:51.180Z,99479.38
2022-09-18T02:46:01.071Z,99489.53
2022-09-18T02:51:09.599Z,99489.84
2022-09-18T02:56:15.965Z,99485.78
2022-09-18T03:01:23.325Z,99500.88
2022-09-18T03:06:26.368Z,99511.00
2022-09-18T03:11:29.082Z,99511.84
2022-09-18T03:16:33.094Z,99526.41
2022-09-18T03:21:35.797Z,99526.13
2022-09-18T03:26:41.202Z,99513.47
2022-09-18T03:31:45.418Z,99527.41
2022-09-18T03:36:49.254Z,99528.75
2022-09-18T03:41:53.267Z,99524.78
2022-09-18T03:46:57.973Z,99528.91
2022-09-18T03:52:00.760Z,99532.19
2022-09-18T03:57:08.158Z,99552.69
2022-09-18T04:02:21.814Z,99546.16
2022-09-18T04:07:43.074Z,99529.59
2022-09-18T04:13:04.607Z,99551.06
2022-09-18T04:18:12.100Z,99540.41
2022-09-18T04:23:15.268Z,99548.09
2022-09-18T04:28:17.927Z,99552.38
2022-09-18T04:33:27.555Z,99562.53
2022-09-18T04:38:30.184Z,99567.28
2022-09-18T04:43:33.250Z,99563.69
2022-09-18T04:48:37.523Z,99563.84
2022-09-18T04:53:41.452Z,99566.63
2022-09-18T04:58:45.397Z,99569.75
2022-09-18T05:03:49.791Z,99577.63
2022-09-18T05:09:01.717Z,99580.88
2022-09-18T05:14:04.590Z,99571.72
2022-09-18T05:19:10.657Z,99581.88
2022-09-18T05:24:14.037Z,99584.84
2022-09-18T05:29:17.691Z,99586.31
2022-09-18T05:34:21.879Z,99589.28
2022-09-18T05:39:25.422Z,99589.09
2022-09-18T05:44:33.077Z,99590.56
2022-09-18T05:49:37.388Z,99598.63
2022-09-18T05:54:42.485Z,99597.47
2022-09-18T05:59:45.988Z,99603.22
2022-09-18T06:04:50.014Z,99603.03
2022-09-18T06:09:53.290Z,99604.34
2022-09-18T06:14:55.990Z,99611.91
2022-09-18T06:20:02.438Z,99599.25
2022-09-18T06:25:06.596Z,99605.47
2022-09-18T06:30:11.442Z,99605.16
2022-09-18T06:35:15.754Z,99608.28
2022-09-18T06:40:18.932Z,99614.19
2022-09-18T06:45:40.577Z,99616.63
2022-09-18T06:50:44.742Z,99622.22
2022-09-18T06:55:48.899Z,99621.56
2022-09-18T07:00:51.636Z,99635.34
2022-09-18T07:06:03.283Z,99635.81
2022-09-18T07:11:19.757Z,99626.25
2022-09-18T07:16:23.065Z,99640.06
2022-09-18T07:21:27.487Z,99644.63
2022-09-18T07:26:30.110Z,99640.47
2022-09-18T07:31:32.897Z,99640.47
2022-09-18T07:36:40.164Z,99633.25
2022-09-18T07:41:43.615Z,99639.75
2022-09-18T07:46:46.981Z,99626.88
2022-09-18T07:51:51.237Z,99629.66
2022-09-18T07:56:54.544Z,99630.41
2022-09-18T08:02:00.420Z,99627.91
2022-09-18T08:07:07.987Z,99640.06
2022-09-18T08:12:36.642Z,99634.38
2022-09-18T08:18:02.575Z,99640.88
2022-09-18T08:23:20.207Z,99629.91
2022-09-18T08:28:23.122Z,99646.84
2022-09-18T08:33:31.197Z,99635.88
2022-09-18T08:38:36.801Z,99620.66
2022-09-18T08:44:02.794Z,99628.41
2022-09-18T08:49:15.964Z,99632.47
2022-09-18T08:54:27.515Z,99637.00
2022-09-18T09:00:02.541Z,99624.66
2022-09-18T09:05:09.665Z,99628.00
2022-09-18T09:10:32.409Z,99622.84
2022-09-18T09:15:38.962Z,99622.66
2022-09-18T09:20:51.440Z,99615.94
2022-09-18T09:26:03.155Z,99618.50
2022-09-18T09:31:26.055Z,99605.47
2022-09-18T09:36:54.810Z,99596.75
2022-09-18T09:42:00.134Z,99606.13
2022-09-18T09:47:21.221Z,99595.09
2022-09-18T09:52:25.753Z,99591.22
2022-09-18T09:57:41.012Z,99609.59
2022-09-18T10:02:57.324Z,99578.16
2022-09-18T10:08:07.146Z,99578.34
2022-09-18T10:13:16.426Z,99584.13
2022-09-18T10:18:22.813Z,99590.75
2022-09-18T10:23:33.956Z,99575.78
2022-09-18T10:28:39.538Z,99598.66
2022-09-18T10:33:43.994Z,99585.31
2022-09-18T10:38:54.162Z,99589.59
2022-09-18T10:44:27.154Z,99589.97
2022-09-18T10:49:41.759Z,99577.78
2022-09-18T10:54:58.754Z,99577.66
2022-09-18T11:00:05.776Z,99577.06
2022-09-18T11:05:16.922Z,99574.47
2022-09-18T11:10:22.660Z,99569.28
2022-09-18T11:15:29.911Z,99560.28
2022-09-18T11:20:34.844Z,99569.78
2022-09-18T11:25:45.735Z,99591.31
2022-09-18T11:31:01.016Z,99566.69
2022-09-18T11:36:05.864Z,99587.25
2022-09-18T11:41:11.761Z,99561.25
2022-09-18T11:46:26.462Z,99561.63
2022-09-18T11:51:46.627Z,99552.44
2022-09-18T11:56:51.777Z,99536.03
2022-09-18T12:02:02.657Z,99544.00
2022-09-18T12:07:12.994Z,99537.66
2022-09-18T12:12:19.846Z,99511.25
2022-09-18T12:17:29.086Z,99519.03
2022-09-18T12:22:41.153Z,99516.63
2022-09-18T12:27:52.782Z,99515.09
2022-09-18T12:33:17.928Z,99521.78
2022-09-18T12:38:35.040Z,99523.94
2022-09-18T12:44:22.159Z,99543.91
2022-09-18T12:49:46.911Z,99532.75
2022-09-18T12:55:01.706Z,99513.94
2022-09-18T13:00:08.555Z,99535.09
2022-09-18T13:05:17.781Z,99573.13
2022-09-18T13:10:23.278Z,99565.47
2022-09-18T13:15:28.544Z,99551.38
2022-09-18T13:20:36.208Z,99568.78
2022-09-18T13:25:40.563Z,99552.56
2022-09-18T13:30:43.404Z,99558.59
2022-09-18T13:35:53.851Z,99548.91
2022-09-18T13:41:00.482Z,99545.91
2022-09-18T13:46:07.066Z,99544.31
2022-09-18T13:51:20.155Z,99534.63
2022-09-18T13:56:57.652Z,99527.41
2022-09-18T14:02:02.658Z,99510.88
2022-09-18T14:07:45.916Z,99498.41
2022-09-18T14:13:24.027Z,99495.19
2022-09-18T14:18:29.132Z,99490.97
2022-09-18T14:24:11.703Z,99524.28
2022-09-18T14:29:18.669Z,99494.06
2022-09-18T14:34:24.391Z,99498.00
2022-09-18T14:39:29.414Z,99481.59
2022-09-18T14:44:34.511Z,99471.88
2022-09-18T14:49:42.092Z,99461.19
2022-09-18T14:54:47.563Z,99471.38
2022-09-18T14:59:53.442Z,99486.59
2022-09-18T15:04:56.387Z,99489.34
2022-09-18T15:10:02.654Z,99480.41
2022-09-18T15:20:36.736Z,99472.72
2022-09-18T15:25:40.602Z,99472.41
2022-09-18T15:30:43.671Z,99470.31
2022-09-18T15:35:52.270Z,99486.09
2022-09-18T15:40:55.660Z,99478.47
2022-09-18T15:46:03.202Z,99475.53
2022-09-18T15:51:13.295Z,99485.06
2022-09-18T15:56:21.025Z,99485.78
2022-09-18T16:01:29.535Z,99481.84
2022-09-18T16:06:42.657Z,99491.69
2022-09-18T16:11:46.933Z,99488.91
2022-09-18T16:16:49.578Z,99487.91
2022-09-18T16:21:53.664Z,99490.91
2022-09-18T16:27:05.147Z,99479.75
2022-09-18T16:32:10.192Z,99478.72
2022-09-18T16:37:17.015Z,99484.13
2022-09-18T16:42:20.133Z,99490.53
2022-09-18T16:47:22.760Z,99479.03
2022-09-18T16:52:26.931Z,99484.59
2022-09-18T16:57:30.643Z,99489.06
2022-09-18T17:02:33.870Z,99490.19
2022-09-18T17:07:37.987Z,99475.59
2022-09-18T17:12:41.481Z,99472.16
2022-09-18T17:17:45.589Z,99470.34
2022-09-18T17:22:50.612Z,99475.69
2022-09-18T17:27:53.184Z,99490.84
2022-09-18T17:32:55.805Z,99492.47
2022-09-18T17:38:00.813Z,99469.66
2022-09-18T17:43:03.907Z,99479.88
2022-09-18T17:48:06.609Z,99483.19
2022-09-18T17:53:11.090Z,99484.03
2022-09-18T17:58:13.968Z,99485.47
2022-09-18T18:03:17.284Z,99483.19
2022-09-18T18:08:21.317Z,99482.03
2022-09-18T18:13:24.125Z,99488.59
2022-09-18T18:18:27.286Z,99496.31
2022-09-18T18:23:31.399Z,99494.81
2022-09-18T18:28:35.100Z,99493.84
2022-09-18T18:33:38.226Z,99489.06
2022-09-18T18:38:42.986Z,99488.44
2022-09-18T18:43:46.005Z,99490.56
2022-09-18T18:48:49.303Z,99491.56
2022-09-18T18:53:55.206Z,99494.19
2022-09-18T18:58:58.762Z,99491.72
2022-09-18T19:04:03.401Z,99495.00
2022-09-18T19:09:09.288Z,99504.81
2022-09-18T19:14:14.145Z,99497.28
2022-09-18T19:19:18.590Z,99492.84
2022-09-18T19:24:22.889Z,99494.63
2022-09-18T19:29:25.630Z,99494.25
2022-09-18T19:34:28.306Z,99492.78
2022-09-18T19:39:32.372Z,99505.53
2022-09-18T19:44:37.613Z,99489.31
2022-09-18T19:49:40.492Z,99482.63
2022-09-18T19:54:44.560Z,99488.03
2022-09-18T19:59:47.703Z,99480.34
2022-09-18T20:04:50.364Z,99482.50
2022-09-18T20:09:54.479Z,99481.03
2022-09-18T20:14:57.157Z,99467.09
2022-09-18T20:20:00.376Z,99471.53
2022-09-18T20:25:05.215Z,99473.84
2022-09-18T20:30:10.713Z,99473.22
2022-09-18T20:35:13.446Z,99463.88
2022-09-18T20:40:17.750Z,99460.75
2022-09-18T20:45:20.566Z,99454.72
2022-09-18T20:50:27.676Z,99444.72
2022-09-18T20:55:31.668Z,99445.06
2022-09-18T21:00:34.464Z,99449.13
2022-09-18T21:05:37.658Z,99454.56
2022-09-18T21:10:46.708Z,99453.88
2022-09-18T21:15:49.407Z,99464.22
2022-09-18T21:21:02.356Z,99464.88
2022-09-18T21:26:17.397Z,99444.22
2022-09-18T21:31:20.643Z,99448.50
2022-09-18T21:36:24.521Z,99439.47
2022-09-18T21:41:28.509Z,99449.13
2022-09-18T21:46:31.121Z,99457.50
2022-09-18T21:51:34.324Z,99444.72
2022-09-18T21:56:38.273Z,99448.50
2022-09-18T22:01:42.687Z,99445.22
2022-09-18T22:06:46.573Z,99446.84
2022-09-18T22:11:51.370Z,99434.56
2022-09-18T22:16:54.141Z,99429.63
2022-09-18T22:21:57.252Z,99428.19
2022-09-18T22:27:02.484Z,99432.91
2022-09-18T22:32:05.976Z,99424.75
2022-09-18T22:37:08.852Z,99415.06
2022-09-18T22:42:18.030Z,99424.41
2022-09-18T22:47:20.613Z,99428.97
2022-09-18T22:52:23.261Z,99424.25
2022-09-18T22:57:27.343Z,99437.97
2022-09-18T23:02:30.021Z,99419.94
2022-09-18T23:07:32.626Z,99416.66
2022-09-18T23:12:36.650Z,99430.09
2022-09-18T23:17:39.303Z,99419.13
2022-09-18T23:22:41.890Z,99412.78
2022-09-18T23:27:45.826Z,99424.53
2022-09-18T23:32:48.771Z,99421.31
2022-09-18T23:37:51.360Z,99421.28
2022-09-18T23:42:55.455Z,99436.69
2022-09-18T23:47:58.061Z,99426.53
2022-09-18T23:53:00.699Z,99421.28
2022-09-18T23:58:04.819Z,99420.13
